Time;durP1;ratioP1;P1;durP2;ratioP2;P2;SDS_P1;SDS_P2;PMS_P1;PMS_P2;Temp;Humidity;BMP_temperature;BMP_pressure;BME280_temperature;BME280_humidity;BME280_pressure;Samples;Min_cycle;Max_cycle;Signal;HPM_P1;HPM_P2
2023/06/18 00:01:31;;;;;;;11.73;10.53;;;19.60;99.90;;;;;;5087906;28;20215;-62
2023/06/18 00:04:00;;;;;;;12.00;9.77;;;19.60;99.90;;;;;;5091923;28;20692;-62
2023/06/18 00:06:28;;;;;;;12.43;10.10;;;19.50;99.90;;;;;;5083118;28;20216;-62
2023/06/18 00:08:57;;;;;;;11.10;10.00;;;19.50;99.90;;;;;;5085005;28;20516;-62
2023/06/18 00:11:25;;;;;;;12.63;10.30;;;19.40;99.90;;;;;;5077271;28;20577;-61
2023/06/18 00:13:55;;;;;;;15.40;10.40;;;19.40;99.90;;;;;;5084718;28;20223;-60
2023/06/18 00:16:23;;;;;;;11.20;10.07;;;19.40;99.90;;;;;;5089568;28;20219;-60
2023/06/18 00:18:51;;;;;;;10.67;9.67;;;19.40;99.90;;;;;;5086916;28;20234;-60
2023/06/18 00:21:20;;;;;;;14.10;10.57;;;19.40;99.90;;;;;;5085276;28;20279;-60
2023/06/18 00:23:48;;;;;;;14.57;10.53;;;19.40;99.90;;;;;;5087481;28;20588;-59
2023/06/18 00:26:17;;;;;;;11.87;10.00;;;19.40;99.90;;;;;;5084339;28;20274;-60
2023/06/18 00:28:45;;;;;;;10.67;9.63;;;19.40;99.90;;;;;;5084348;28;20224;-59
2023/06/18 00:31:15;;;;;;;12.50;9.90;;;19.40;99.90;;;;;;5086097;28;20229;-60
2023/06/18 00:33:44;;;;;;;12.00;10.77;;;19.40;99.90;;;;;;5088664;28;20222;-60
2023/06/18 00:36:12;;;;;;;11.37;10.27;;;19.40;99.90;;;;;;5081919;28;20183;-59
2023/06/18 00:38:46;;;;;;;10.80;9.70;;;19.30;99.90;;;;;;5088755;28;20805;-59
2023/06/18 00:41:16;;;;;;;12.33;11.00;;;19.30;99.90;;;;;;5087507;28;20226;-60
2023/06/18 00:43:44;;;;;;;12.13;10.53;;;19.30;99.90;;;;;;5090747;28;20683;-59
2023/06/18 00:46:13;;;;;;;11.93;10.73;;;19.20;99.90;;;;;;5085934;28;20227;-60
2023/06/18 00:48:45;;;;;;;11.20;10.20;;;19.10;99.90;;;;;;5083962;28;20211;-59
2023/06/18 00:51:13;;;;;;;11.90;10.40;;;19.10;99.90;;;;;;5086857;28;20210;-59
2023/06/18 00:53:42;;;;;;;12.67;10.10;;;19.10;99.90;;;;;;5089573;28;20209;-60
2023/06/18 00:56:10;;;;;;;11.83;10.63;;;19.00;99.90;;;;;;5084211;28;20230;-60
2023/06/18 00:58:38;;;;;;;11.77;10.57;;;19.00;99.90;;;;;;5071818;28;20215;-62
2023/06/18 01:01:10;;;;;;;13.67;10.83;;;19.00;99.90;;;;;;5088120;28;20230;-63
2023/06/18 01:03:39;;;;;;;12.30;10.50;;;19.00;99.90;;;;;;5087188;28;20603;-62
2023/06/18 01:06:12;;;;;;;13.53;10.20;;;18.90;99.90;;;;;;5073374;28;20211;-62
2023/06/18 01:08:48;;;;;;;12.27;10.97;;;18.90;99.90;;;;;;5086569;28;20210;-62
2023/06/18 01:11:19;;;;;;;11.57;10.37;;;18.90;99.90;;;;;;5087320;28;20584;-62
2023/06/18 01:13:48;;;;;;;14.73;10.53;;;18.90;99.90;;;;;;5065032;28;20219;-60
2023/06/18 01:16:22;;;;;;;12.20;10.70;;;18.90;99.90;;;;;;5085861;28;20218;-59
2023/06/18 01:18:52;;;;;;;14.83;11.23;;;18.90;99.90;;;;;;5089457;28;20218;-62
2023/06/18 01:21:24;;;;;;;12.53;10.87;;;18.80;99.90;;;;;;5089307;28;20187;-59
2023/06/18 01:24:00;;;;;;;13.20;10.73;;;18.80;99.90;;;;;;5091571;28;20195;-61
2023/06/18 01:26:31;;;;;;;12.27;10.60;;;18.70;99.90;;;;;;5086722;28;20219;-60
2023/06/18 01:29:00;;;;;;;14.23;11.47;;;18.70;99.90;;;;;;5086046;28;20223;-61
2023/06/18 01:31:34;;;;;;;12.10;10.90;;;18.70;99.90;;;;;;5086129;28;20763;-61
2023/06/18 01:34:04;;;;;;;12.67;10.97;;;18.70;99.90;;;;;;5085876;28;20231;-60
2023/06/18 01:36:47;;;;;;;14.10;11.57;;;18.60;99.90;;;;;;5089335;28;20302;-61
2023/06/18 01:39:25;;;;;;;11.90;10.80;;;18.60;99.90;;;;;;5084846;28;20282;-61
2023/06/18 01:42:01;;;;;;;13.37;11.97;;;18.60;99.90;;;;;;5083625;28;20191;-61
2023/06/18 01:44:31;;;;;;;12.70;11.13;;;18.50;99.90;;;;;;5082579;28;20235;-61
2023/06/18 01:47:00;;;;;;;15.53;11.27;;;18.50;99.90;;;;;;5081738;28;20233;-60
2023/06/18 01:49:28;;;;;;;13.43;11.07;;;18.50;99.90;;;;;;5084769;28;20229;-60
2023/06/18 01:52:03;;;;;;;12.40;11.13;;;18.50;99.90;;;;;;5088020;28;20215;-61
2023/06/18 01:54:32;;;;;;;13.47;11.23;;;18.50;99.90;;;;;;5086667;28;20227;-61
2023/06/18 01:57:02;;;;;;;12.97;11.27;;;18.40;99.90;;;;;;5086897;28;20183;-60
2023/06/18 01:59:30;;;;;;;12.03;10.93;;;18.40;99.90;;;;;;5084060;28;20639;-61
2023/06/18 02:01:59;;;;;;;16.17;11.83;;;18.40;99.90;;;;;;5085719;28;20224;-61
2023/06/18 02:04:27;;;;;;;14.97;12.57;;;18.30;99.90;;;;;;5089587;28;20573;-61
2023/06/18 02:06:55;;;;;;;12.97;11.63;;;18.30;99.90;;;;;;5088018;28;20719;-61
2023/06/18 02:09:25;;;;;;;13.33;11.93;;;18.30;99.90;;;;;;5092322;28;20195;-60
2023/06/18 02:11:54;;;;;;;12.30;11.20;;;18.20;99.90;;;;;;5089984;28;20210;-61
2023/06/18 02:14:22;;;;;;;12.33;11.13;;;18.30;99.90;;;;;;5091851;28;20294;-61
2023/06/18 02:16:51;;;;;;;14.50;11.53;;;18.20;99.90;;;;;;5088457;28;20239;-60
2023/06/18 02:19:19;;;;;;;12.00;10.87;;;18.20;99.90;;;;;;5090435;28;20215;-61
2023/06/18 02:21:47;;;;;;;12.33;11.07;;;18.20;99.90;;;;;;5089776;28;20216;-61
2023/06/18 02:24:16;;;;;;;11.83;10.67;;;18.20;99.90;;;;;;5092145;28;20229;-60
2023/06/18 02:26:46;;;;;;;12.60;10.87;;;18.20;99.90;;;;;;5085348;28;20215;-61
2023/06/18 02:29:14;;;;;;;12.40;10.37;;;18.20;99.90;;;;;;5091427;28;20262;-61
2023/06/18 02:31:43;;;;;;;11.83;10.63;;;18.20;99.90;;;;;;5089941;28;20221;-61
2023/06/18 02:34:11;;;;;;;11.50;10.43;;;18.20;99.90;;;;;;5091290;28;20712;-61
2023/06/18 02:36:39;;;;;;;14.13;10.97;;;18.20;99.90;;;;;;5093317;28;20223;-61
2023/06/18 02:39:09;;;;;;;13.43;10.80;;;18.20;99.90;;;;;;5092029;28;20275;-61
2023/06/18 02:41:37;;;;;;;12.97;10.47;;;18.20;99.90;;;;;;5090033;28;20227;-61
2023/06/18 02:44:08;;;;;;;12.53;11.20;;;18.20;99.90;;;;;;5092021;28;20588;-60
2023/06/18 02:46:36;;;;;;;11.90;10.70;;;18.20;99.90;;;;;;5090194;28;20219;-60
2023/06/18 02:49:04;;;;;;;15.67;10.83;;;18.10;99.90;;;;;;5089590;28;20275;-60
2023/06/18 02:51:33;;;;;;;11.13;9.67;;;18.20;99.90;;;;;;5088656;28;20223;-60
2023/06/18 02:54:01;;;;;;;11.90;10.70;;;18.20;99.90;;;;;;5072787;28;20200;-60
2023/06/18 02:56:29;;;;;;;11.47;10.20;;;18.20;99.90;;;;;;5093988;28;20992;-60
2023/06/18 02:58:58;;;;;;;11.33;10.23;;;18.30;99.90;;;;;;5093246;28;20630;-60
2023/06/18 03:01:32;;;;;;;13.83;10.87;;;18.30;99.90;;;;;;5091976;28;20644;-60
2023/06/18 03:04:00;;;;;;;11.37;10.17;;;18.30;99.90;;;;;;5090366;28;20306;-61
2023/06/18 03:06:28;;;;;;;11.17;10.10;;;18.30;99.90;;;;;;5093288;28;25980;-60
2023/06/18 03:08:57;;;;;;;11.90;10.50;;;18.30;99.90;;;;;;5094610;28;20192;-61
2023/06/18 03:11:26;;;;;;;10.77;9.63;;;18.30;99.90;;;;;;5093025;28;20281;-60
2023/06/18 03:13:54;;;;;;;10.47;9.47;;;18.30;99.90;;;;;;5091945;28;20320;-60
2023/06/18 03:16:23;;;;;;;9.60;8.60;;;18.30;99.90;;;;;;5087414;28;20226;-60
2023/06/18 03:18:53;;;;;;;9.57;8.57;;;18.30;99.90;;;;;;5072602;28;20226;-60
2023/06/18 03:21:21;;;;;;;8.87;8.07;;;18.20;99.90;;;;;;5089834;28;20256;-60
2023/06/18 03:23:49;;;;;;;8.63;7.73;;;18.30;99.90;;;;;;5093557;28;20256;-60
2023/06/18 03:26:18;;;;;;;8.63;7.70;;;18.20;99.90;;;;;;5092758;28;20211;-60
2023/06/18 03:28:46;;;;;;;8.47;7.67;;;18.30;99.90;;;;;;5091728;28;20226;-60
2023/06/18 03:31:15;;;;;;;8.73;7.80;;;18.40;99.90;;;;;;5091498;28;20226;-60
2023/06/18 03:33:43;;;;;;;8.03;7.23;;;18.40;99.90;;;;;;5089883;28;20251;-60
2023/06/18 03:36:15;;;;;;;8.30;7.60;;;18.50;99.90;;;;;;5088877;28;20202;-60
2023/06/18 03:38:45;;;;;;;8.10;7.23;;;18.60;99.90;;;;;;5086159;28;20183;-60
2023/06/18 03:41:14;;;;;;;7.90;6.80;;;18.60;99.90;;;;;;5088815;28;20212;-60
2023/06/18 03:43:43;;;;;;;8.43;7.60;;;18.70;99.90;;;;;;5090976;28;20244;-60
2023/06/18 03:46:11;;;;;;;10.47;7.80;;;18.80;99.90;;;;;;5092680;28;20727;-60
2023/06/18 03:48:41;;;;;;;7.37;6.77;;;18.90;99.90;;;;;;5092574;28;20243;-60
2023/06/18 03:51:09;;;;;;;8.07;7.30;;;18.90;99.90;;;;;;5092467;28;20215;-59
2023/06/18 03:53:39;;;;;;;7.80;7.10;;;18.90;99.90;;;;;;5090435;28;20199;-60
2023/06/18 03:56:08;;;;;;;8.67;7.77;;;19.00;99.90;;;;;;5065611;28;20223;-60
2023/06/18 03:58:36;;;;;;;7.97;6.80;;;19.10;99.90;;;;;;5086838;28;20577;-60
2023/06/18 04:01:05;;;;;;;7.77;7.00;;;19.20;99.90;;;;;;5085850;28;20299;-60
2023/06/18 04:03:33;;;;;;;12.03;7.30;;;19.20;99.90;;;;;;5089636;28;20222;-60
2023/06/18 04:06:02;;;;;;;7.70;7.07;;;19.20;99.90;;;;;;5089402;28;20648;-60
2023/06/18 04:08:30;;;;;;;12.13;7.53;;;19.30;99.90;;;;;;5089527;28;20709;-61
2023/06/18 04:11:00;;;;;;;8.47;7.73;;;19.30;99.90;;;;;;5089811;28;20219;-61
2023/06/18 04:13:29;;;;;;;8.57;7.60;;;19.40;99.90;;;;;;5070013;28;20753;-61
2023/06/18 04:15:58;;;;;;;9.17;8.37;;;19.40;99.90;;;;;;5090061;28;20214;-60
2023/06/18 04:18:27;;;;;;;8.20;7.50;;;19.40;99.90;;;;;;5083120;28;20291;-60
2023/06/18 04:20:55;;;;;;;8.33;7.53;;;19.40;99.90;;;;;;5083106;28;20184;-60
2023/06/18 04:23:23;;;;;;;9.30;8.13;;;19.40;99.90;;;;;;5088557;28;20226;-61
2023/06/18 04:25:52;;;;;;;8.30;7.60;;;19.40;99.90;;;;;;5067772;28;20222;-60
2023/06/18 04:28:22;;;;;;;8.07;7.33;;;19.50;99.90;;;;;;5062919;28;20325;-60
2023/06/18 04:30:50;;;;;;;8.97;8.07;;;19.50;99.90;;;;;;5088329;28;20215;-60
2023/06/18 04:33:19;;;;;;;8.47;7.73;;;19.50;99.90;;;;;;5091004;28;20191;-60
2023/06/18 04:35:47;;;;;;;9.17;8.37;;;19.50;99.90;;;;;;5089430;28;20684;-60
2023/06/18 04:38:15;;;;;;;9.03;8.13;;;19.40;99.90;;;;;;5068506;28;20212;-60
2023/06/18 04:40:45;;;;;;;10.37;9.13;;;19.40;99.90;;;;;;5084736;28;20222;-60
2023/06/18 04:43:13;;;;;;;9.30;8.37;;;19.30;99.90;;;;;;5085993;28;20223;-60
2023/06/18 04:45:43;;;;;;;8.80;7.90;;;19.20;99.90;;;;;;5081434;28;20709;-60
2023/06/18 04:48:11;;;;;;;8.70;7.90;;;19.30;99.90;;;;;;5086223;28;20204;-60
2023/06/18 04:50:40;;;;;;;11.20;8.60;;;19.30;99.90;;;;;;5085367;28;20336;-60
2023/06/18 04:53:08;;;;;;;9.20;8.30;;;19.30;99.90;;;;;;5084475;28;20225;-60
2023/06/18 04:55:37;;;;;;;9.20;8.30;;;19.30;99.90;;;;;;5089169;28;20230;-61
2023/06/18 04:58:06;;;;;;;11.03;8.83;;;19.30;99.90;;;;;;5083384;28;20314;-61
2023/06/18 05:00:34;;;;;;;9.53;8.40;;;19.30;99.90;;;;;;5086886;28;20216;-61
2023/06/18 05:03:04;;;;;;;9.80;8.57;;;19.20;99.90;;;;;;5071389;28;20513;-61
2023/06/18 05:05:32;;;;;;;9.33;8.60;;;19.20;99.90;;;;;;5088968;28;20223;-61
2023/06/18 05:08:01;;;;;;;11.37;9.37;;;19.20;99.90;;;;;;5090027;28;20218;-61
2023/06/18 05:10:29;;;;;;;10.83;9.20;;;19.20;99.90;;;;;;5088273;28;20763;-60
2023/06/18 05:12:58;;;;;;;10.60;9.60;;;19.20;99.90;;;;;;5089509;28;20219;-61
2023/06/18 05:15:26;;;;;;;10.77;9.37;;;19.10;99.90;;;;;;5088769;28;20567;-61
2023/06/18 05:17:54;;;;;;;9.40;8.50;;;19.20;99.90;;;;;;5087167;28;20294;-61
2023/06/18 05:20:24;;;;;;;9.97;8.77;;;19.20;99.90;;;;;;5085626;28;20317;-61
2023/06/18 05:22:52;;;;;;;9.03;8.23;;;19.20;99.90;;;;;;5089212;28;20722;-61
2023/06/18 05:25:21;;;;;;;9.53;8.27;;;19.30;99.90;;;;;;5086885;28;20621;-61
2023/06/18 05:27:49;;;;;;;9.57;8.67;;;19.30;99.90;;;;;;5085054;28;20222;-61
2023/06/18 05:30:18;;;;;;;9.73;8.73;;;19.30;99.90;;;;;;5086655;28;20210;-60
2023/06/18 05:32:46;;;;;;;8.90;8.10;;;19.40;99.90;;;;;;5089240;28;20191;-61
2023/06/18 05:35:15;;;;;;;10.90;9.27;;;19.40;99.90;;;;;;5087279;28;20223;-61
2023/06/18 05:37:44;;;;;;;9.43;8.53;;;19.50;99.90;;;;;;5070189;28;20223;-61
2023/06/18 05:40:13;;;;;;;10.47;8.50;;;19.60;99.90;;;;;;5088869;28;20211;-61
2023/06/18 05:42:41;;;;;;;9.33;8.47;;;19.70;99.90;;;;;;5084894;28;20251;-61
2023/06/18 05:45:10;;;;;;;9.27;8.37;;;19.70;99.90;;;;;;5087413;28;20210;-60
2023/06/18 05:47:38;;;;;;;9.30;8.33;;;19.80;99.90;;;;;;5085749;28;20191;-61
2023/06/18 05:50:08;;;;;;;9.43;8.20;;;19.80;99.90;;;;;;5081082;28;20330;-61
2023/06/18 05:52:37;;;;;;;11.67;8.00;;;20.00;99.90;;;;;;5085951;28;20306;-61
2023/06/18 05:55:08;;;;;;;9.03;8.23;;;20.10;99.90;;;;;;5087539;28;20719;-61
2023/06/18 05:57:36;;;;;;;7.97;7.33;;;20.10;99.90;;;;;;5086749;28;20229;-61
2023/06/18 06:00:05;;;;;;;9.10;8.23;;;20.10;99.90;;;;;;5090630;28;20206;-61
2023/06/18 06:02:34;;;;;;;8.60;7.80;;;20.10;99.90;;;;;;5089934;28;20215;-61
2023/06/18 06:05:02;;;;;;;9.13;8.33;;;20.20;99.90;;;;;;5086173;28;20215;-61
2023/06/18 06:07:31;;;;;;;8.97;7.97;;;20.20;99.90;;;;;;5088566;28;20272;-61
2023/06/18 06:10:00;;;;;;;10.73;8.13;;;20.30;99.90;;;;;;5075483;28;20234;-61
2023/06/18 06:12:29;;;;;;;10.33;8.60;;;20.30;99.90;;;;;;5069195;28;20202;-61
2023/06/18 06:14:57;;;;;;;8.57;7.73;;;20.30;99.90;;;;;;5080369;28;20184;-61
2023/06/18 06:17:26;;;;;;;8.40;7.57;;;20.40;99.90;;;;;;5081460;28;20227;-61
2023/06/18 06:19:54;;;;;;;20.80;8.03;;;20.50;99.90;;;;;;5086531;28;20306;-61
2023/06/18 06:22:23;;;;;;;8.60;7.70;;;20.60;99.90;;;;;;5066265;28;20231;-61
2023/06/18 06:24:51;;;;;;;9.33;8.40;;;20.50;99.90;;;;;;5089862;28;20207;-61
2023/06/18 06:27:19;;;;;;;11.37;8.73;;;20.40;99.90;;;;;;5088471;28;20851;-61
2023/06/18 06:29:49;;;;;;;19.47;8.80;;;20.40;99.90;;;;;;5088717;28;20214;-61
2023/06/18 06:32:17;;;;;;;9.13;8.23;;;20.50;99.90;;;;;;5086460;28;20223;-61
2023/06/18 06:34:45;;;;;;;8.83;8.03;;;20.50;99.90;;;;;;5086985;28;20219;-61
2023/06/18 06:37:14;;;;;;;8.83;8.13;;;20.60;99.90;;;;;;5085837;28;20302;-61
2023/06/18 06:39:42;;;;;;;9.07;8.20;;;20.50;99.90;;;;;;5089572;28;20286;-61
2023/06/18 06:42:12;;;;;;;12.00;7.97;;;20.50;99.90;;;;;;5085636;28;20188;-60
2023/06/18 06:44:41;;;;;;;7.77;6.97;;;20.60;99.90;;;;;;5083456;28;20680;-61
2023/06/18 06:47:11;;;;;;;10.20;7.30;;;20.70;99.90;;;;;;5067379;28;20221;-61
2023/06/18 06:49:39;;;;;;;12.23;7.27;;;20.80;99.90;;;;;;5084523;28;20219;-61
2023/06/18 06:52:07;;;;;;;10.27;7.30;;;21.00;99.90;;;;;;5080804;28;22116;-61
2023/06/18 06:54:37;;;;;;;7.33;6.60;;;21.00;99.90;;;;;;5088292;28;20713;-61
2023/06/18 06:57:06;;;;;;;7.10;6.50;;;21.10;99.90;;;;;;5089192;28;20198;-61
2023/06/18 06:59:34;;;;;;;6.53;6.03;;;21.20;99.90;;;;;;5087997;28;20218;-61
2023/06/18 07:02:03;;;;;;;7.10;6.20;;;21.10;99.90;;;;;;5088208;28;20229;-61
2023/06/18 07:04:33;;;;;;;6.63;6.23;;;21.10;99.90;;;;;;5087749;28;20607;-61
2023/06/18 07:07:01;;;;;;;6.87;6.30;;;21.00;99.90;;;;;;5089374;28;20868;-61
2023/06/18 07:09:30;;;;;;;9.47;6.70;;;21.00;99.90;;;;;;5083758;28;20235;-61
2023/06/18 07:11:59;;;;;;;6.63;6.10;;;20.90;99.90;;;;;;5080395;28;20291;-61
2023/06/18 07:14:28;;;;;;;6.73;6.10;;;20.90;99.90;;;;;;5087649;28;20719;-61
2023/06/18 07:16:56;;;;;;;5.90;5.50;;;20.90;99.90;;;;;;5087470;28;20219;-60
2023/06/18 07:19:25;;;;;;;6.23;5.83;;;20.70;99.90;;;;;;5087053;28;20225;-60
2023/06/18 07:21:54;;;;;;;5.97;5.47;;;20.60;99.90;;;;;;5086712;28;20215;-61
2023/06/18 07:24:23;;;;;;;6.60;5.80;;;20.50;99.90;;;;;;5089613;28;20191;-61
2023/06/18 07:26:51;;;;;;;6.03;5.63;;;20.50;99.90;;;;;;5085168;28;20220;-60
2023/06/18 07:29:19;;;;;;;7.40;5.73;;;20.40;99.90;;;;;;5080174;28;20227;-60
2023/06/18 07:31:48;;;;;;;5.97;5.57;;;20.30;99.90;;;;;;5085683;28;20219;-60
2023/06/18 07:34:17;;;;;;;6.40;5.80;;;20.30;99.90;;;;;;5080736;28;20223;-59
2023/06/18 07:36:45;;;;;;;6.83;6.13;;;20.20;99.90;;;;;;5085220;28;20221;-59
2023/06/18 07:39:15;;;;;;;6.93;6.40;;;20.10;99.90;;;;;;5087712;28;20187;-59
2023/06/18 07:41:47;;;;;;;7.60;5.93;;;20.10;99.90;;;;;;5089057;28;21274;-60
2023/06/18 07:44:16;;;;;;;6.97;6.10;;;20.00;99.90;;;;;;5084617;28;20227;-59
2023/06/18 07:46:45;;;;;;;6.37;5.87;;;20.00;99.90;;;;;;5073610;28;20211;-60
2023/06/18 07:49:16;;;;;;;7.23;6.63;;;19.90;99.90;;;;;;5077007;28;20769;-60
2023/06/18 07:51:45;;;;;;;8.20;7.43;;;19.90;99.90;;;;;;5084217;28;20418;-60
2023/06/18 07:54:13;;;;;;;7.20;6.70;;;19.80;99.90;;;;;;5084233;28;20690;-60
2023/06/18 07:56:42;;;;;;;7.53;6.93;;;19.70;99.90;;;;;;5083137;28;20202;-60
2023/06/18 07:59:11;;;;;;;7.77;6.90;;;19.70;99.90;;;;;;5080879;28;20215;-61
2023/06/18 08:01:39;;;;;;;7.83;7.07;;;19.70;99.90;;;;;;5078607;28;20207;-61
2023/06/18 08:04:08;;;;;;;8.30;7.50;;;19.70;99.90;;;;;;5078673;28;20222;-61
2023/06/18 08:06:37;;;;;;;8.50;7.10;;;19.80;99.90;;;;;;5081210;28;20216;-61
2023/06/18 08:09:05;;;;;;;7.77;7.17;;;19.80;99.90;;;;;;5074043;28;20191;-61
2023/06/18 08:11:34;;;;;;;8.80;8.00;;;19.80;99.90;;;;;;5081262;28;20235;-61
2023/06/18 08:14:04;;;;;;;8.03;7.43;;;19.80;99.90;;;;;;5088458;28;20229;-61
2023/06/18 08:16:32;;;;;;;8.43;7.63;;;19.80;99.90;;;;;;5090492;28;20234;-61
2023/06/18 08:19:00;;;;;;;8.83;7.93;;;19.80;99.90;;;;;;5088776;28;20238;-62
2023/06/18 08:21:29;;;;;;;7.90;7.30;;;19.80;99.90;;;;;;5075920;28;20238;-61
2023/06/18 08:23:57;;;;;;;7.77;7.07;;;20.00;99.90;;;;;;5083305;28;20665;-61
2023/06/18 08:26:26;;;;;;;8.60;7.63;;;20.10;99.90;;;;;;5084847;28;20269;-61
2023/06/18 08:28:54;;;;;;;8.27;7.57;;;20.20;99.90;;;;;;5087288;28;20242;-61
2023/06/18 08:31:24;;;;;;;9.30;8.37;;;20.40;99.90;;;;;;5086893;28;20223;-61
2023/06/18 08:33:52;;;;;;;8.50;7.80;;;20.50;99.90;;;;;;5082792;28;20226;-61
2023/06/18 08:36:21;;;;;;;8.13;7.43;;;20.50;99.90;;;;;;5086169;28;20199;-62
2023/06/18 08:38:50;;;;;;;7.40;6.73;;;20.50;99.90;;;;;;5073243;28;20268;-61
2023/06/18 08:41:18;;;;;;;8.27;6.50;;;20.60;99.90;;;;;;5059619;28;20293;-61
2023/06/18 08:43:47;;;;;;;7.87;7.17;;;20.70;99.90;;;;;;5085157;28;20957;-61
2023/06/18 08:46:17;;;;;;;7.03;6.43;;;20.70;99.90;;;;;;5080579;28;20270;-61
2023/06/18 08:48:53;;;;;;;7.23;6.53;;;20.70;99.90;;;;;;5086177;28;20244;-61
2023/06/18 08:51:21;;;;;;;7.23;6.57;;;20.70;99.90;;;;;;5065068;28;20690;-62
2023/06/18 08:53:56;;;;;;;6.83;6.33;;;20.80;99.90;;;;;;5083100;28;20219;-61
2023/06/18 08:56:25;;;;;;;7.80;6.73;;;20.80;99.90;;;;;;5080124;28;20226;-61
2023/06/18 08:58:57;;;;;;;7.37;6.57;;;20.80;99.90;;;;;;5087353;28;20323;-62
2023/06/18 09:01:27;;;;;;;9.07;6.33;;;20.80;99.90;;;;;;5067708;28;20231;-61
2023/06/18 09:04:00;;;;;;;7.17;6.30;;;20.90;99.90;;;;;;5086987;28;20223;-61
2023/06/18 09:06:33;;;;;;;6.40;6.00;;;20.90;99.90;;;;;;5087179;28;20281;-62
2023/06/18 09:09:01;;;;;;;7.13;6.47;;;21.10;99.90;;;;;;5088786;28;20197;-61
2023/06/18 09:11:30;;;;;;;7.33;6.60;;;21.10;99.90;;;;;;5082943;28;20228;-61
2023/06/18 09:14:05;;;;;;;6.13;5.73;;;21.00;99.90;;;;;;5085705;28;20214;-61
2023/06/18 09:16:33;;;;;;;6.63;6.17;;;21.00;99.90;;;;;;5087861;28;20329;-61
2023/06/18 09:19:04;;;;;;;6.43;5.83;;;21.00;99.90;;;;;;5085946;28;20254;-61
2023/06/18 09:21:38;;;;;;;6.50;5.90;;;21.20;99.90;;;;;;5086114;28;20693;-61
2023/06/18 09:24:08;;;;;;;6.00;5.60;;;21.20;99.90;;;;;;5085771;28;20217;-61
2023/06/18 09:26:37;;;;;;;5.67;5.30;;;21.20;99.90;;;;;;5087906;28;20215;-61
2023/06/18 09:29:06;;;;;;;6.00;5.60;;;21.20;99.90;;;;;;5084241;28;20218;-61
2023/06/18 09:31:35;;;;;;;5.40;5.10;;;21.20;99.90;;;;;;5077673;28;20579;-61
2023/06/18 09:34:15;;;;;;;6.30;5.80;;;21.10;99.90;;;;;;5080062;28;20244;-61
2023/06/18 09:36:46;;;;;;;6.37;5.90;;;21.10;99.90;;;;;;5085189;28;20219;-61
2023/06/18 09:39:19;;;;;;;7.77;6.17;;;21.20;99.90;;;;;;5077542;28;20231;-61
2023/06/18 09:41:49;;;;;;;6.43;6.00;;;21.30;99.90;;;;;;5083704;28;20180;-61
2023/06/18 09:44:18;;;;;;;6.73;6.13;;;21.50;99.90;;;;;;5074511;28;20240;-61
2023/06/18 09:46:49;;;;;;;6.03;5.47;;;21.70;99.90;;;;;;5083712;28;20261;-62
2023/06/18 09:49:20;;;;;;;6.23;5.73;;;21.70;99.90;;;;;;5080353;28;20219;-61
2023/06/18 09:51:51;;;;;;;6.53;5.27;;;21.60;99.90;;;;;;5086195;28;20283;-61
2023/06/18 09:54:19;;;;;;;5.87;5.37;;;21.70;99.90;;;;;;5082931;28;20245;-61
2023/06/18 09:56:57;;;;;;;5.93;5.43;;;21.80;99.90;;;;;;5084577;28;20194;-61
2023/06/18 09:59:26;;;;;;;5.40;5.00;;;21.80;99.90;;;;;;5085676;28;20234;-61
2023/06/18 10:01:55;;;;;;;5.63;5.33;;;21.70;99.90;;;;;;5085594;28;20318;-61
2023/06/18 10:04:25;;;;;;;5.93;5.43;;;21.70;99.90;;;;;;5089435;28;20249;-61
2023/06/18 10:06:58;;;;;;;6.47;5.97;;;21.90;99.90;;;;;;5069739;28;20210;-61
2023/06/18 10:09:31;;;;;;;5.97;5.50;;;21.90;99.90;;;;;;5084383;28;20560;-61
2023/06/18 10:12:01;;;;;;;6.23;5.73;;;21.90;99.90;;;;;;5083495;28;20203;-61
2023/06/18 10:14:31;;;;;;;5.80;5.50;;;22.00;99.90;;;;;;5087947;28;20882;-61
2023/06/18 10:17:04;;;;;;;6.53;6.03;;;22.10;99.90;;;;;;5086761;28;21539;-60
2023/06/18 10:19:39;;;;;;;6.03;5.53;;;22.20;99.90;;;;;;5086377;28;20230;-61
2023/06/18 10:22:11;;;;;;;6.57;6.00;;;22.40;99.90;;;;;;5083521;28;20588;-62
2023/06/18 10:24:43;;;;;;;6.50;6.00;;;22.60;99.90;;;;;;5084279;28;20880;-61
2023/06/18 10:27:12;;;;;;;6.60;6.10;;;22.70;99.90;;;;;;5083295;28;20205;-60
2023/06/18 10:29:40;;;;;;;6.70;6.10;;;22.80;99.90;;;;;;5088813;28;20200;-61
2023/06/18 10:32:09;;;;;;;7.40;6.60;;;22.90;99.90;;;;;;5086180;28;20211;-61
2023/06/18 10:34:40;;;;;;;8.00;6.73;;;23.00;99.90;;;;;;5070521;28;20220;-61
2023/06/18 10:37:08;;;;;;;7.87;7.10;;;23.00;99.90;;;;;;5090285;28;20219;-60
2023/06/18 10:39:37;;;;;;;7.97;7.20;;;23.00;99.90;;;;;;5090963;28;20223;-61
2023/06/18 10:42:12;;;;;;;8.30;7.60;;;23.00;99.90;;;;;;5092391;28;20192;-61
2023/06/18 10:44:53;;;;;;;7.90;7.30;;;23.10;99.90;;;;;;5087852;28;20294;-63
2023/06/18 10:47:22;;;;;;;8.30;7.60;;;23.10;99.90;;;;;;5087148;28;21861;-61
2023/06/18 10:50:13;;;;;;;7.90;7.30;;;23.20;99.90;;;;;;5090397;28;20429;-61
2023/06/18 10:52:42;;;;;;;8.50;7.80;;;23.30;99.90;;;;;;5088003;28;20311;-61
2023/06/18 10:55:13;;;;;;;8.87;7.50;;;23.30;99.90;;;;;;5087915;28;20309;-61
2023/06/18 10:57:44;;;;;;;9.60;7.53;;;23.20;99.90;;;;;;5088857;28;20240;-61
2023/06/18 11:00:21;;;;;;;9.17;8.23;;;23.30;99.90;;;;;;5089700;28;20638;-61
2023/06/18 11:02:57;;;;;;;8.87;8.17;;;23.40;99.90;;;;;;5090325;28;20238;-62
2023/06/18 11:05:44;;;;;;;9.40;7.13;;;23.50;99.90;;;;;;5087965;28;20234;-62
2023/06/18 11:08:14;;;;;;;9.87;7.60;;;23.50;99.90;;;;;;5086343;28;20237;-61
2023/06/18 11:10:47;;;;;;;7.57;7.00;;;23.50;99.90;;;;;;5089209;28;20219;-61
2023/06/18 11:13:16;;;;;;;8.13;7.33;;;23.60;99.90;;;;;;5087729;28;20220;-61
2023/06/18 11:15:58;;;;;;;8.50;7.67;;;23.60;99.90;;;;;;5071844;28;20233;-61
2023/06/18 11:18:28;;;;;;;8.13;7.43;;;23.90;99.90;;;;;;5086390;28;20207;-61
2023/06/18 11:20:59;;;;;;;8.23;7.43;;;24.00;99.90;;;;;;5088508;28;20674;-63
2023/06/18 11:23:29;;;;;;;7.47;6.87;;;24.10;99.90;;;;;;5087276;28;20212;-61
2023/06/18 11:25:58;;;;;;;8.60;7.33;;;24.00;99.90;;;;;;5067656;28;20612;-61
2023/06/18 11:28:26;;;;;;;8.07;7.30;;;24.00;99.90;;;;;;5084682;28;20222;-61
2023/06/18 11:30:58;;;;;;;8.00;7.03;;;24.10;99.90;;;;;;5086575;28;20725;-62
2023/06/18 11:33:28;;;;;;;8.43;7.70;;;24.20;99.90;;;;;;5084428;28;21948;-62
2023/06/18 11:36:08;;;;;;;7.93;7.20;;;24.40;99.90;;;;;;5085636;28;20234;-62
2023/06/18 11:38:37;;;;;;;8.40;6.97;;;24.40;99.90;;;;;;5083012;28;20275;-62
2023/06/18 11:41:06;;;;;;;8.37;7.57;;;24.40;99.90;;;;;;5066445;28;20298;-62
2023/06/18 11:43:45;;;;;;;8.50;7.67;;;24.40;99.90;;;;;;5066114;28;20230;-62
2023/06/18 11:46:28;;;;;;;7.77;7.17;;;24.30;99.90;;;;;;5084419;28;20312;-62
2023/06/18 11:48:58;;;;;;;7.30;6.70;;;24.40;99.90;;;;;;5082485;28;20222;-62
2023/06/18 11:51:31;;;;;;;8.23;7.43;;;24.50;99.90;;;;;;5084729;28;20202;-62
2023/06/18 11:54:01;;;;;;;7.53;6.90;;;24.60;99.90;;;;;;5088428;28;20301;-62
2023/06/18 11:56:30;;;;;;;7.57;6.83;;;24.50;99.90;;;;;;5087321;28;20662;-62
2023/06/18 11:58:59;;;;;;;8.23;7.53;;;24.40;99.90;;;;;;5083192;28;20245;-62
2023/06/18 12:01:28;;;;;;;8.53;7.67;;;24.30;99.90;;;;;;5091407;28;20330;-62
2023/06/18 12:04:04;;;;;;;7.77;7.07;;;24.40;99.90;;;;;;5085688;28;20266;-62
2023/06/18 12:06:35;;;;;;;7.63;6.93;;;24.40;99.90;;;;;;5082600;28;20262;-62
2023/06/18 12:09:07;;;;;;;7.67;6.90;;;24.40;99.90;;;;;;5074797;28;20207;-62
2023/06/18 12:11:55;;;;;;;8.90;8.10;;;24.40;99.90;;;;;;5082601;28;20221;-62
2023/06/18 12:14:31;;;;;;;8.37;7.40;;;24.60;99.90;;;;;;5084248;28;20257;-62
2023/06/18 12:17:07;;;;;;;8.00;7.37;;;24.60;99.90;;;;;;5088163;28;20224;-61
2023/06/18 12:19:38;;;;;;;8.33;7.53;;;24.60;99.90;;;;;;5085130;28;20226;-62
2023/06/18 12:22:08;;;;;;;9.17;8.20;;;24.70;99.90;;;;;;5085631;28;20221;-62
2023/06/18 12:24:38;;;;;;;9.10;8.20;;;24.80;99.90;;;;;;5081172;28;20210;-62
2023/06/18 12:27:07;;;;;;;9.33;8.30;;;24.80;99.90;;;;;;5079227;28;20203;-62
2023/06/18 12:29:35;;;;;;;9.03;8.33;;;25.00;99.90;;;;;;5080377;28;20226;-62
2023/06/18 12:32:05;;;;;;;9.37;8.43;;;25.20;99.90;;;;;;5082966;28;20246;-62
2023/06/18 12:34:35;;;;;;;9.33;8.53;;;25.40;99.90;;;;;;5079919;28;20223;-62
2023/06/18 12:37:03;;;;;;;9.67;8.53;;;25.60;99.90;;;;;;5081493;28;20224;-62
2023/06/18 12:39:34;;;;;;;10.03;8.43;;;25.80;99.90;;;;;;5077516;28;20231;-62
2023/06/18 12:42:09;;;;;;;8.77;7.77;;;25.80;99.90;;;;;;5054263;28;20251;-63
2023/06/18 12:44:40;;;;;;;8.30;7.60;;;25.90;99.90;;;;;;5078458;28;20211;-62
2023/06/18 12:47:14;;;;;;;8.50;7.80;;;26.10;99.90;;;;;;5081916;28;20645;-62
2023/06/18 12:49:45;;;;;;;8.57;7.80;;;26.20;99.90;;;;;;5085686;28;20219;-62
2023/06/18 12:52:17;;;;;;;8.67;7.77;;;26.30;99.90;;;;;;5084511;28;20254;-63
2023/06/18 12:54:47;;;;;;;8.37;7.30;;;26.60;99.90;;;;;;5086683;28;20219;-63